sensor_id;sensor_type;location;lat;lon;timestamp;P1;durP1;ratioP1;P2;durP2;ratioP2
23826;SDS011;12094;50.822;4.376;2023-05-10T00:02:02;17.40;;;9.85;;
23826;SDS011;12094;50.822;4.376;2023-05-10T00:04:31;20.48;;;9.63;;
23826;SDS011;12094;50.822;4.376;2023-05-10T00:07:00;21.75;;;9.98;;
23826;SDS011;12094;50.822;4.376;2023-05-10T00:09:27;21.42;;;10.40;;
23826;SDS011;12094;50.822;4.376;2023-05-10T00:11:54;18.95;;;10.35;;
23826;SDS011;12094;50.822;4.376;2023-05-10T00:14:21;22.55;;;10.48;;
23826;SDS011;12094;50.822;4.376;2023-05-10T00:16:48;20.23;;;10.18;;
23826;SDS011;12094;50.822;4.376;2023-05-10T00:19:16;19.95;;;10.88;;
23826;SDS011;12094;50.822;4.376;2023-05-10T00:21:43;22.02;;;11.23;;
23826;SDS011;12094;50.822;4.376;2023-05-10T00:24:13;20.52;;;10.70;;
23826;SDS011;12094;50.822;4.376;2023-05-10T00:26:41;25.05;;;11.57;;
23826;SDS011;12094;50.822;4.376;2023-05-10T00:29:09;19.98;;;10.80;;
23826;SDS011;12094;50.822;4.376;2023-05-10T00:31:36;23.55;;;11.68;;
23826;SDS011;12094;50.822;4.376;2023-05-10T00:34:03;22.42;;;12.15;;
23826;SDS011;12094;50.822;4.376;2023-05-10T00:36:32;22.58;;;11.18;;
23826;SDS011;12094;50.822;4.376;2023-05-10T00:39:03;23.35;;;10.80;;
23826;SDS011;12094;50.822;4.376;2023-05-10T00:41:30;19.67;;;11.23;;
23826;SDS011;12094;50.822;4.376;2023-05-10T00:44:01;21.10;;;11.57;;
23826;SDS011;12094;50.822;4.376;2023-05-10T00:46:28;24.15;;;10.52;;
23826;SDS011;12094;50.822;4.376;2023-05-10T00:48:58;21.67;;;12.15;;
23826;SDS011;12094;50.822;4.376;2023-05-10T00:51:26;22.50;;;11.40;;
23826;SDS011;12094;50.822;4.376;2023-05-10T00:53:55;19.42;;;10.95;;
23826;SDS011;12094;50.822;4.376;2023-05-10T00:56:23;26.40;;;12.80;;
23826;SDS011;12094;50.822;4.376;2023-05-10T00:58:51;19.58;;;11.85;;
23826;SDS011;12094;50.822;4.376;2023-05-10T01:01:19;23.63;;;12.43;;
23826;SDS011;12094;50.822;4.376;2023-05-10T01:03:50;25.50;;;13.27;;
23826;SDS011;12094;50.822;4.376;2023-05-10T01:06:19;23.40;;;13.38;;
23826;SDS011;12094;50.822;4.376;2023-05-10T01:08:46;22.27;;;12.60;;
23826;SDS011;12094;50.822;4.376;2023-05-10T01:11:13;22.45;;;12.93;;
23826;SDS011;12094;50.822;4.376;2023-05-10T01:13:42;23.00;;;12.38;;
23826;SDS011;12094;50.822;4.376;2023-05-10T01:16:16;22.60;;;12.48;;
23826;SDS011;12094;50.822;4.376;2023-05-10T01:18:43;25.73;;;12.93;;
23826;SDS011;12094;50.822;4.376;2023-05-10T01:21:23;21.42;;;13.60;;
23826;SDS011;12094;50.822;4.376;2023-05-10T01:37:48;28.27;;;13.85;;
23826;SDS011;12094;50.822;4.376;2023-05-10T01:40:26;29.40;;;15.10;;
23826;SDS011;12094;50.822;4.376;2023-05-10T01:43:11;26.13;;;13.93;;
23826;SDS011;12094;50.822;4.376;2023-05-10T01:45:47;23.17;;;14.75;;
23826;SDS011;12094;50.822;4.376;2023-05-10T01:48:16;27.00;;;13.90;;
23826;SDS011;12094;50.822;4.376;2023-05-10T01:50:47;24.73;;;14.45;;
23826;SDS011;12094;50.822;4.376;2023-05-10T01:53:17;26.23;;;15.23;;
23826;SDS011;12094;50.822;4.376;2023-05-10T01:55:47;29.48;;;14.35;;
23826;SDS011;12094;50.822;4.376;2023-05-10T01:58:23;26.48;;;15.05;;
23826;SDS011;12094;50.822;4.376;2023-05-10T02:00:54;27.52;;;14.60;;
23826;SDS011;12094;50.822;4.376;2023-05-10T02:05:56;31.40;;;15.07;;
23826;SDS011;12094;50.822;4.376;2023-05-10T02:08:24;26.73;;;14.35;;
23826;SDS011;12094;50.822;4.376;2023-05-10T02:10:52;28.77;;;14.82;;
23826;SDS011;12094;50.822;4.376;2023-05-10T02:13:22;27.50;;;14.95;;
23826;SDS011;12094;50.822;4.376;2023-05-10T02:15:50;29.50;;;15.27;;
23826;SDS011;12094;50.822;4.376;2023-05-10T02:18:20;29.38;;;15.48;;
23826;SDS011;12094;50.822;4.376;2023-05-10T02:20:51;27.33;;;15.23;;
23826;SDS011;12094;50.822;4.376;2023-05-10T02:23:20;28.33;;;14.57;;
23826;SDS011;12094;50.822;4.376;2023-05-10T02:25:49;33.47;;;15.07;;
23826;SDS011;12094;50.822;4.376;2023-05-10T02:28:19;30.52;;;14.52;;
23826;SDS011;12094;50.822;4.376;2023-05-10T02:30:48;26.80;;;14.43;;
23826;SDS011;12094;50.822;4.376;2023-05-10T02:33:16;25.15;;;15.05;;
23826;SDS011;12094;50.822;4.376;2023-05-10T02:35:44;26.85;;;13.75;;
23826;SDS011;12094;50.822;4.376;2023-05-10T02:38:13;21.30;;;11.48;;
23826;SDS011;12094;50.822;4.376;2023-05-10T02:40:41;24.10;;;13.18;;
23826;SDS011;12094;50.822;4.376;2023-05-10T02:43:12;20.05;;;11.50;;
23826;SDS011;12094;50.822;4.376;2023-05-10T02:45:40;25.50;;;13.25;;
23826;SDS011;12094;50.822;4.376;2023-05-10T02:48:09;22.85;;;12.23;;
23826;SDS011;12094;50.822;4.376;2023-05-10T02:50:36;20.40;;;12.05;;
23826;SDS011;12094;50.822;4.376;2023-05-10T02:53:06;20.67;;;11.38;;
23826;SDS011;12094;50.822;4.376;2023-05-10T02:55:45;21.17;;;12.13;;
23826;SDS011;12094;50.822;4.376;2023-05-10T02:58:18;25.80;;;12.73;;
23826;SDS011;12094;50.822;4.376;2023-05-10T03:00:47;23.15;;;12.45;;
23826;SDS011;12094;50.822;4.376;2023-05-10T03:03:14;21.67;;;12.32;;
23826;SDS011;12094;50.822;4.376;2023-05-10T03:05:42;25.50;;;12.57;;
23826;SDS011;12094;50.822;4.376;2023-05-10T03:08:09;22.35;;;12.30;;
23826;SDS011;12094;50.822;4.376;2023-05-10T03:10:38;23.85;;;13.40;;
23826;SDS011;12094;50.822;4.376;2023-05-10T03:16:14;33.55;;;14.20;;
23826;SDS011;12094;50.822;4.376;2023-05-10T03:19:02;32.63;;;14.90;;
23826;SDS011;12094;50.822;4.376;2023-05-10T03:21:57;29.55;;;14.65;;
23826;SDS011;12094;50.822;4.376;2023-05-10T03:24:32;35.08;;;16.10;;
23826;SDS011;12094;50.822;4.376;2023-05-10T03:27:01;35.25;;;15.07;;
23826;SDS011;12094;50.822;4.376;2023-05-10T03:29:31;31.75;;;15.80;;
23826;SDS011;12094;50.822;4.376;2023-05-10T03:31:59;29.00;;;15.63;;
23826;SDS011;12094;50.822;4.376;2023-05-10T03:34:29;33.38;;;16.85;;
23826;SDS011;12094;50.822;4.376;2023-05-10T03:37:00;31.98;;;17.95;;
23826;SDS011;12094;50.822;4.376;2023-05-10T03:39:30;37.10;;;18.58;;
23826;SDS011;12094;50.822;4.376;2023-05-10T03:41:58;37.47;;;19.77;;
23826;SDS011;12094;50.822;4.376;2023-05-10T03:44:26;37.67;;;18.83;;
23826;SDS011;12094;50.822;4.376;2023-05-10T03:46:54;37.95;;;19.38;;
23826;SDS011;12094;50.822;4.376;2023-05-10T03:49:25;41.17;;;19.08;;
23826;SDS011;12094;50.822;4.376;2023-05-10T03:51:59;44.70;;;21.33;;
23826;SDS011;12094;50.822;4.376;2023-05-10T03:54:30;44.60;;;21.67;;
23826;SDS011;12094;50.822;4.376;2023-05-10T03:57:01;44.38;;;21.08;;
23826;SDS011;12094;50.822;4.376;2023-05-10T03:59:37;45.63;;;21.58;;
23826;SDS011;12094;50.822;4.376;2023-05-10T04:02:11;47.78;;;21.92;;
23826;SDS011;12094;50.822;4.376;2023-05-10T04:04:41;49.80;;;21.65;;
23826;SDS011;12094;50.822;4.376;2023-05-10T04:07:09;51.25;;;23.45;;
23826;SDS011;12094;50.822;4.376;2023-05-10T04:12:40;45.78;;;23.10;;
23826;SDS011;12094;50.822;4.376;2023-05-10T04:15:08;47.80;;;22.75;;
23826;SDS011;12094;50.822;4.376;2023-05-10T04:17:35;50.20;;;23.88;;
23826;SDS011;12094;50.822;4.376;2023-05-10T04:20:06;47.05;;;22.95;;
23826;SDS011;12094;50.822;4.376;2023-05-10T04:22:34;49.63;;;22.27;;
23826;SDS011;12094;50.822;4.376;2023-05-10T04:25:02;45.65;;;22.08;;
23826;SDS011;12094;50.822;4.376;2023-05-10T04:27:29;54.20;;;24.33;;
23826;SDS011;12094;50.822;4.376;2023-05-10T04:29:56;57.80;;;23.83;;
23826;SDS011;12094;50.822;4.376;2023-05-10T04:32:23;47.80;;;22.17;;
23826;SDS011;12094;50.822;4.376;2023-05-10T04:34:51;49.88;;;23.33;;
23826;SDS011;12094;50.822;4.376;2023-05-10T04:37:21;61.92;;;25.35;;
23826;SDS011;12094;50.822;4.376;2023-05-10T04:39:49;52.90;;;25.52;;
23826;SDS011;12094;50.822;4.376;2023-05-10T04:42:16;48.90;;;24.38;;
23826;SDS011;12094;50.822;4.376;2023-05-10T04:44:45;51.92;;;25.52;;
23826;SDS011;12094;50.822;4.376;2023-05-10T04:47:12;59.85;;;25.20;;
23826;SDS011;12094;50.822;4.376;2023-05-10T04:49:43;57.70;;;25.27;;
23826;SDS011;12094;50.822;4.376;2023-05-10T04:52:10;51.78;;;25.17;;
23826;SDS011;12094;50.822;4.376;2023-05-10T04:54:37;55.10;;;24.25;;
23826;SDS011;12094;50.822;4.376;2023-05-10T04:57:04;56.65;;;26.42;;
23826;SDS011;12094;50.822;4.376;2023-05-10T04:59:31;52.67;;;24.75;;
23826;SDS011;12094;50.822;4.376;2023-05-10T05:01:58;52.72;;;25.15;;
23826;SDS011;12094;50.822;4.376;2023-05-10T05:04:26;53.53;;;23.63;;
23826;SDS011;12094;50.822;4.376;2023-05-10T05:06:54;45.63;;;22.90;;
23826;SDS011;12094;50.822;4.376;2023-05-10T05:09:21;47.53;;;23.67;;
23826;SDS011;12094;50.822;4.376;2023-05-10T05:11:49;48.42;;;23.20;;
23826;SDS011;12094;50.822;4.376;2023-05-10T05:14:20;41.67;;;20.77;;
23826;SDS011;12094;50.822;4.376;2023-05-10T05:16:51;36.88;;;20.05;;
23826;SDS011;12094;50.822;4.376;2023-05-10T05:19:20;31.13;;;16.60;;
23826;SDS011;12094;50.822;4.376;2023-05-10T05:21:48;34.25;;;16.25;;
23826;SDS011;12094;50.822;4.376;2023-05-10T05:24:16;30.77;;;16.27;;
23826;SDS011;12094;50.822;4.376;2023-05-10T05:26:44;32.97;;;15.73;;
23826;SDS011;12094;50.822;4.376;2023-05-10T05:29:14;28.90;;;16.50;;
23826;SDS011;12094;50.822;4.376;2023-05-10T05:31:41;30.38;;;16.15;;
23826;SDS011;12094;50.822;4.376;2023-05-10T05:34:09;32.58;;;16.73;;
23826;SDS011;12094;50.822;4.376;2023-05-10T05:36:37;33.00;;;16.27;;
23826;SDS011;12094;50.822;4.376;2023-05-10T05:39:08;35.17;;;18.50;;
23826;SDS011;12094;50.822;4.376;2023-05-10T05:41:35;26.95;;;15.38;;
23826;SDS011;12094;50.822;4.376;2023-05-10T05:44:02;34.28;;;17.00;;
23826;SDS011;12094;50.822;4.376;2023-05-10T05:46:29;30.67;;;16.90;;
23826;SDS011;12094;50.822;4.376;2023-05-10T05:48:56;39.78;;;17.63;;
23826;SDS011;12094;50.822;4.376;2023-05-10T05:51:23;32.45;;;16.52;;
23826;SDS011;12094;50.822;4.376;2023-05-10T05:53:50;30.08;;;16.58;;
23826;SDS011;12094;50.822;4.376;2023-05-10T05:56:17;30.25;;;16.15;;
23826;SDS011;12094;50.822;4.376;2023-05-10T05:58:50;33.25;;;16.30;;
23826;SDS011;12094;50.822;4.376;2023-05-10T06:01:18;27.38;;;15.30;;
23826;SDS011;12094;50.822;4.376;2023-05-10T06:03:47;27.60;;;14.05;;
23826;SDS011;12094;50.822;4.376;2023-05-10T06:06:17;24.85;;;13.38;;
23826;SDS011;12094;50.822;4.376;2023-05-10T06:08:44;23.52;;;11.05;;
23826;SDS011;12094;50.822;4.376;2023-05-10T06:11:11;28.08;;;12.98;;
23826;SDS011;12094;50.822;4.376;2023-05-10T06:13:38;28.88;;;13.38;;
23826;SDS011;12094;50.822;4.376;2023-05-10T06:16:05;23.75;;;11.35;;
23826;SDS011;12094;50.822;4.376;2023-05-10T06:18:33;24.63;;;11.93;;
23826;SDS011;12094;50.822;4.376;2023-05-10T06:21:00;14.40;;;8.73;;
23826;SDS011;12094;50.822;4.376;2023-05-10T06:23:27;21.77;;;11.18;;
23826;SDS011;12094;50.822;4.376;2023-05-10T06:25:56;18.55;;;10.07;;
23826;SDS011;12094;50.822;4.376;2023-05-10T06:28:23;27.65;;;11.10;;
23826;SDS011;12094;50.822;4.376;2023-05-10T06:30:51;27.85;;;10.48;;
23826;SDS011;12094;50.822;4.376;2023-05-10T06:33:18;13.80;;;7.82;;
23826;SDS011;12094;50.822;4.376;2023-05-10T06:35:47;16.23;;;8.30;;
23826;SDS011;12094;50.822;4.376;2023-05-10T06:38:17;15.98;;;8.52;;
23826;SDS011;12094;50.822;4.376;2023-05-10T06:40:44;15.75;;;7.20;;
23826;SDS011;12094;50.822;4.376;2023-05-10T06:43:11;13.18;;;7.78;;
23826;SDS011;12094;50.822;4.376;2023-05-10T06:45:38;15.32;;;8.48;;
23826;SDS011;12094;50.822;4.376;2023-05-10T06:48:05;13.60;;;7.15;;
23826;SDS011;12094;50.822;4.376;2023-05-10T06:50:32;11.90;;;6.55;;
23826;SDS011;12094;50.822;4.376;2023-05-10T06:53:00;11.90;;;7.35;;
23826;SDS011;12094;50.822;4.376;2023-05-10T06:55:29;11.57;;;7.15;;
23826;SDS011;12094;50.822;4.376;2023-05-10T06:57:56;11.85;;;7.57;;
23826;SDS011;12094;50.822;4.376;2023-05-10T07:00:23;12.73;;;7.80;;
23826;SDS011;12094;50.822;4.376;2023-05-10T07:02:53;16.10;;;8.43;;
23826;SDS011;12094;50.822;4.376;2023-05-10T07:05:21;14.90;;;7.35;;
23826;SDS011;12094;50.822;4.376;2023-05-10T07:07:51;13.60;;;7.90;;
23826;SDS011;12094;50.822;4.376;2023-05-10T07:10:28;19.50;;;8.70;;
23826;SDS011;12094;50.822;4.376;2023-05-10T07:13:00;14.77;;;8.48;;
23826;SDS011;12094;50.822;4.376;2023-05-10T07:15:27;17.92;;;7.90;;
23826;SDS011;12094;50.822;4.376;2023-05-10T07:20:34;18.25;;;9.40;;
23826;SDS011;12094;50.822;4.376;2023-05-10T07:23:02;16.45;;;9.40;;
23826;SDS011;12094;50.822;4.376;2023-05-10T07:25:29;19.75;;;9.68;;
23826;SDS011;12094;50.822;4.376;2023-05-10T07:28:00;20.25;;;9.75;;
23826;SDS011;12094;50.822;4.376;2023-05-10T07:30:27;20.92;;;10.40;;
23826;SDS011;12094;50.822;4.376;2023-05-10T07:32:54;17.13;;;10.30;;
23826;SDS011;12094;50.822;4.376;2023-05-10T07:35:22;24.27;;;11.07;;
23826;SDS011;12094;50.822;4.376;2023-05-10T07:37:49;18.92;;;10.43;;
23826;SDS011;12094;50.822;4.376;2023-05-10T07:40:17;23.65;;;10.68;;
23826;SDS011;12094;50.822;4.376;2023-05-10T07:42:45;21.50;;;10.75;;
23826;SDS011;12094;50.822;4.376;2023-05-10T07:45:12;18.48;;;9.88;;
23826;SDS011;12094;50.822;4.376;2023-05-10T07:47:39;24.90;;;10.43;;
23826;SDS011;12094;50.822;4.376;2023-05-10T07:50:06;19.52;;;10.40;;
23826;SDS011;12094;50.822;4.376;2023-05-10T07:52:34;17.35;;;8.80;;
23826;SDS011;12094;50.822;4.376;2023-05-10T07:55:01;18.98;;;9.45;;
23826;SDS011;12094;50.822;4.376;2023-05-10T07:57:32;20.33;;;9.23;;
23826;SDS011;12094;50.822;4.376;2023-05-10T08:00:04;15.90;;;8.18;;
23826;SDS011;12094;50.822;4.376;2023-05-10T08:02:41;13.18;;;7.90;;
23826;SDS011;12094;50.822;4.376;2023-05-10T08:05:08;13.73;;;7.82;;
23826;SDS011;12094;50.822;4.376;2023-05-10T08:07:35;14.15;;;8.15;;
23826;SDS011;12094;50.822;4.376;2023-05-10T08:10:03;13.30;;;7.57;;
23826;SDS011;12094;50.822;4.376;2023-05-10T08:12:31;17.45;;;7.57;;
23826;SDS011;12094;50.822;4.376;2023-05-10T08:14:59;16.00;;;8.57;;
23826;SDS011;12094;50.822;4.376;2023-05-10T08:17:27;14.93;;;7.75;;
23826;SDS011;12094;50.822;4.376;2023-05-10T08:19:54;11.10;;;7.25;;
23826;SDS011;12094;50.822;4.376;2023-05-10T08:22:21;15.20;;;6.90;;
23826;SDS011;12094;50.822;4.376;2023-05-10T08:24:59;12.60;;;6.88;;
23826;SDS011;12094;50.822;4.376;2023-05-10T08:30:22;11.43;;;6.60;;
23826;SDS011;12094;50.822;4.376;2023-05-10T08:35:46;14.45;;;6.40;;
23826;SDS011;12094;50.822;4.376;2023-05-10T08:38:14;10.88;;;6.38;;
23826;SDS011;12094;50.822;4.376;2023-05-10T08:40:42;10.68;;;6.10;;
23826;SDS011;12094;50.822;4.376;2023-05-10T08:43:11;11.23;;;6.90;;
23826;SDS011;12094;50.822;4.376;2023-05-10T08:45:42;10.73;;;6.53;;
23826;SDS011;12094;50.822;4.376;2023-05-10T08:48:13;11.88;;;6.65;;
23826;SDS011;12094;50.822;4.376;2023-05-10T08:50:41;9.70;;;6.88;;
23826;SDS011;12094;50.822;4.376;2023-05-10T08:53:10;11.80;;;7.93;;
23826;SDS011;12094;50.822;4.376;2023-05-10T08:55:41;12.27;;;7.10;;
23826;SDS011;12094;50.822;4.376;2023-05-10T08:58:09;15.35;;;7.20;;
23826;SDS011;12094;50.822;4.376;2023-05-10T09:00:36;12.93;;;6.85;;
23826;SDS011;12094;50.822;4.376;2023-05-10T09:03:04;10.57;;;6.20;;
23826;SDS011;12094;50.822;4.376;2023-05-10T09:05:32;10.23;;;5.80;;
23826;SDS011;12094;50.822;4.376;2023-05-10T09:07:59;11.48;;;6.65;;
23826;SDS011;12094;50.822;4.376;2023-05-10T09:10:28;12.10;;;7.20;;
23826;SDS011;12094;50.822;4.376;2023-05-10T09:12:56;13.13;;;6.57;;
23826;SDS011;12094;50.822;4.376;2023-05-10T09:15:26;13.65;;;6.40;;
23826;SDS011;12094;50.822;4.376;2023-05-10T09:17:52;11.02;;;6.60;;
23826;SDS011;12094;50.822;4.376;2023-05-10T09:20:21;12.05;;;7.18;;
23826;SDS011;12094;50.822;4.376;2023-05-10T09:22:48;11.15;;;6.97;;
23826;SDS011;12094;50.822;4.376;2023-05-10T09:25:16;10.68;;;6.72;;
23826;SDS011;12094;50.822;4.376;2023-05-10T09:27:44;13.15;;;6.50;;
23826;SDS011;12094;50.822;4.376;2023-05-10T09:30:23;10.13;;;6.03;;
23826;SDS011;12094;50.822;4.376;2023-05-10T09:32:58;12.00;;;6.60;;
23826;SDS011;12094;50.822;4.376;2023-05-10T09:35:27;12.10;;;6.78;;
23826;SDS011;12094;50.822;4.376;2023-05-10T09:37:56;11.82;;;7.03;;
23826;SDS011;12094;50.822;4.376;2023-05-10T09:40:28;8.80;;;5.93;;
23826;SDS011;12094;50.822;4.376;2023-05-10T09:43:03;7.35;;;4.85;;
23826;SDS011;12094;50.822;4.376;2023-05-10T09:45:33;9.15;;;4.97;;
23826;SDS011;12094;50.822;4.376;2023-05-10T09:48:04;8.73;;;5.25;;
23826;SDS011;12094;50.822;4.376;2023-05-10T09:50:32;8.15;;;5.20;;
23826;SDS011;12094;50.822;4.376;2023-05-10T09:53:01;7.32;;;4.97;;
23826;SDS011;12094;50.822;4.376;2023-05-10T09:58:08;9.38;;;5.03;;
23826;SDS011;12094;50.822;4.376;2023-05-10T10:00:39;8.02;;;4.95;;
23826;SDS011;12094;50.822;4.376;2023-05-10T10:03:11;6.13;;;4.40;;
23826;SDS011;12094;50.822;4.376;2023-05-10T10:05:41;7.15;;;5.53;;
23826;SDS011;12094;50.822;4.376;2023-05-10T10:08:10;8.95;;;5.65;;
23826;SDS011;12094;50.822;4.376;2023-05-10T10:10:39;8.45;;;6.00;;
23826;SDS011;12094;50.822;4.376;2023-05-10T10:13:07;10.38;;;6.20;;
23826;SDS011;12094;50.822;4.376;2023-05-10T10:15:34;9.48;;;6.80;;
23826;SDS011;12094;50.822;4.376;2023-05-10T10:18:02;7.65;;;5.72;;
23826;SDS011;12094;50.822;4.376;2023-05-10T10:20:33;9.82;;;6.38;;
23826;SDS011;12094;50.822;4.376;2023-05-10T10:23:00;8.05;;;6.25;;
23826;SDS011;12094;50.822;4.376;2023-05-10T10:25:28;11.35;;;6.22;;
23826;SDS011;12094;50.822;4.376;2023-05-10T10:30:44;8.25;;;6.10;;
23826;SDS011;12094;50.822;4.376;2023-05-10T10:33:33;8.02;;;5.50;;
23826;SDS011;12094;50.822;4.376;2023-05-10T10:36:15;10.35;;;6.07;;
23826;SDS011;12094;50.822;4.376;2023-05-10T10:49:43;7.03;;;4.75;;
23826;SDS011;12094;50.822;4.376;2023-05-10T10:52:22;12.45;;;5.85;;
23826;SDS011;12094;50.822;4.376;2023-05-10T10:54:59;7.43;;;5.43;;
23826;SDS011;12094;50.822;4.376;2023-05-10T11:02:53;10.95;;;6.05;;
23826;SDS011;12094;50.822;4.376;2023-05-10T11:10:39;10.93;;;6.45;;
23826;SDS011;12094;50.822;4.376;2023-05-10T11:13:08;8.52;;;6.05;;
23826;SDS011;12094;50.822;4.376;2023-05-10T11:15:37;8.98;;;6.07;;
23826;SDS011;12094;50.822;4.376;2023-05-10T11:18:18;13.00;;;7.15;;
23826;SDS011;12094;50.822;4.376;2023-05-10T11:21:01;8.05;;;5.40;;
23826;SDS011;12094;50.822;4.376;2023-05-10T11:23:32;9.10;;;5.53;;
23826;SDS011;12094;50.822;4.376;2023-05-10T11:26:16;9.20;;;5.53;;
23826;SDS011;12094;50.822;4.376;2023-05-10T11:28:43;7.75;;;6.30;;
23826;SDS011;12094;50.822;4.376;2023-05-10T11:31:18;8.40;;;6.03;;
23826;SDS011;12094;50.822;4.376;2023-05-10T11:33:47;11.10;;;6.20;;
23826;SDS011;12094;50.822;4.376;2023-05-10T11:36:20;7.55;;;5.28;;
23826;SDS011;12094;50.822;4.376;2023-05-10T11:38:52;7.63;;;5.43;;
23826;SDS011;12094;50.822;4.376;2023-05-10T11:41:20;8.85;;;5.30;;
23826;SDS011;12094;50.822;4.376;2023-05-10T11:43:52;7.65;;;5.35;;
23826;SDS011;12094;50.822;4.376;2023-05-10T11:46:20;6.67;;;4.77;;
23826;SDS011;12094;50.822;4.376;2023-05-10T11:48:50;7.53;;;5.30;;
23826;SDS011;12094;50.822;4.376;2023-05-10T11:51:19;6.80;;;5.15;;
23826;SDS011;12094;50.822;4.376;2023-05-10T11:53:48;5.60;;;4.88;;
23826;SDS011;12094;50.822;4.376;2023-05-10T11:56:19;5.78;;;4.63;;
23826;SDS011;12094;50.822;4.376;2023-05-10T11:58:52;6.65;;;4.28;;
23826;SDS011;12094;50.822;4.376;2023-05-10T12:01:22;8.23;;;5.60;;
23826;SDS011;12094;50.822;4.376;2023-05-10T12:03:50;6.38;;;5.00;;
23826;SDS011;12094;50.822;4.376;2023-05-10T12:06:19;9.85;;;5.65;;
23826;SDS011;12094;50.822;4.376;2023-05-10T12:08:48;10.32;;;6.05;;
23826;SDS011;12094;50.822;4.376;2023-05-10T12:11:24;7.63;;;6.15;;
23826;SDS011;12094;50.822;4.376;2023-05-10T12:13:53;10.80;;;6.07;;
23826;SDS011;12094;50.822;4.376;2023-05-10T12:16:25;8.35;;;6.25;;
23826;SDS011;12094;50.822;4.376;2023-05-10T12:18:59;7.93;;;5.95;;
23826;SDS011;12094;50.822;4.376;2023-05-10T12:21:30;9.07;;;6.60;;
23826;SDS011;12094;50.822;4.376;2023-05-10T12:24:03;10.88;;;6.78;;
23826;SDS011;12094;50.822;4.376;2023-05-10T12:26:31;8.48;;;6.07;;
23826;SDS011;12094;50.822;4.376;2023-05-10T12:29:14;9.20;;;7.35;;
23826;SDS011;12094;50.822;4.376;2023-05-10T12:31:53;8.95;;;6.47;;
23826;SDS011;12094;50.822;4.376;2023-05-10T12:37:04;10.13;;;6.90;;
23826;SDS011;12094;50.822;4.376;2023-05-10T12:39:41;11.45;;;7.35;;
23826;SDS011;12094;50.822;4.376;2023-05-10T12:42:12;9.52;;;7.13;;
23826;SDS011;12094;50.822;4.376;2023-05-10T12:44:39;8.98;;;5.97;;
23826;SDS011;12094;50.822;4.376;2023-05-10T12:47:06;11.23;;;7.05;;
23826;SDS011;12094;50.822;4.376;2023-05-10T12:49:33;9.57;;;7.13;;
23826;SDS011;12094;50.822;4.376;2023-05-10T12:52:01;10.40;;;6.82;;
23826;SDS011;12094;50.822;4.376;2023-05-10T12:54:29;10.63;;;7.63;;
23826;SDS011;12094;50.822;4.376;2023-05-10T12:56:58;13.02;;;7.72;;
23826;SDS011;12094;50.822;4.376;2023-05-10T12:59:25;9.57;;;6.70;;
23826;SDS011;12094;50.822;4.376;2023-05-10T13:01:52;9.18;;;6.85;;
23826;SDS011;12094;50.822;4.376;2023-05-10T13:04:19;9.57;;;6.40;;
23826;SDS011;12094;50.822;4.376;2023-05-10T13:06:46;7.90;;;5.85;;
23826;SDS011;12094;50.822;4.376;2023-05-10T13:09:13;8.43;;;6.45;;
23826;SDS011;12094;50.822;4.376;2023-05-10T13:11:40;6.95;;;5.78;;
23826;SDS011;12094;50.822;4.376;2023-05-10T13:14:07;6.78;;;5.30;;
23826;SDS011;12094;50.822;4.376;2023-05-10T13:16:37;6.93;;;5.32;;
23826;SDS011;12094;50.822;4.376;2023-05-10T13:19:05;7.47;;;5.35;;
23826;SDS011;12094;50.822;4.376;2023-05-10T13:21:32;8.15;;;4.53;;
23826;SDS011;12094;50.822;4.376;2023-05-10T13:23:59;7.18;;;4.50;;
23826;SDS011;12094;50.822;4.376;2023-05-10T13:26:27;6.07;;;4.32;;
23826;SDS011;12094;50.822;4.376;2023-05-10T13:28:55;5.18;;;4.47;;
23826;SDS011;12094;50.822;4.376;2023-05-10T13:31:24;7.05;;;5.50;;
23826;SDS011;12094;50.822;4.376;2023-05-10T13:33:52;6.43;;;5.05;;
23826;SDS011;12094;50.822;4.376;2023-05-10T13:36:33;10.23;;;6.68;;
23826;SDS011;12094;50.822;4.376;2023-05-10T13:42:27;10.23;;;7.65;;
23826;SDS011;12094;50.822;4.376;2023-05-10T13:44:55;12.20;;;7.38;;
23826;SDS011;12094;50.822;4.376;2023-05-10T13:47:29;11.75;;;7.00;;
23826;SDS011;12094;50.822;4.376;2023-05-10T13:50:02;11.00;;;7.05;;
23826;SDS011;12094;50.822;4.376;2023-05-10T13:52:37;9.85;;;6.82;;
23826;SDS011;12094;50.822;4.376;2023-05-10T13:55:04;10.93;;;7.07;;
23826;SDS011;12094;50.822;4.376;2023-05-10T13:57:32;10.48;;;7.40;;
23826;SDS011;12094;50.822;4.376;2023-05-10T14:00:01;11.88;;;8.07;;
23826;SDS011;12094;50.822;4.376;2023-05-10T14:05:00;13.05;;;9.10;;
23826;SDS011;12094;50.822;4.376;2023-05-10T14:07:30;13.38;;;8.95;;
23826;SDS011;12094;50.822;4.376;2023-05-10T14:09:57;15.13;;;10.15;;
23826;SDS011;12094;50.822;4.376;2023-05-10T14:12:26;17.48;;;10.75;;
23826;SDS011;12094;50.822;4.376;2023-05-10T14:14:54;16.98;;;11.80;;
23826;SDS011;12094;50.822;4.376;2023-05-10T14:17:22;14.40;;;10.43;;
23826;SDS011;12094;50.822;4.376;2023-05-10T14:19:53;18.92;;;10.93;;
23826;SDS011;12094;50.822;4.376;2023-05-10T14:22:20;19.67;;;11.43;;
23826;SDS011;12094;50.822;4.376;2023-05-10T14:24:48;22.73;;;11.55;;
23826;SDS011;12094;50.822;4.376;2023-05-10T14:27:16;17.95;;;11.50;;
23826;SDS011;12094;50.822;4.376;2023-05-10T14:29:43;16.45;;;11.68;;
23826;SDS011;12094;50.822;4.376;2023-05-10T14:32:10;16.77;;;12.48;;
23826;SDS011;12094;50.822;4.376;2023-05-10T14:34:37;18.85;;;11.15;;
23826;SDS011;12094;50.822;4.376;2023-05-10T14:37:04;14.82;;;10.20;;
23826;SDS011;12094;50.822;4.376;2023-05-10T14:44:53;16.13;;;10.05;;
23826;SDS011;12094;50.822;4.376;2023-05-10T14:47:20;15.35;;;11.10;;
23826;SDS011;12094;50.822;4.376;2023-05-10T14:49:48;16.40;;;11.10;;
23826;SDS011;12094;50.822;4.376;2023-05-10T14:52:16;16.38;;;11.90;;
23826;SDS011;12094;50.822;4.376;2023-05-10T14:54:47;18.55;;;12.63;;
23826;SDS011;12094;50.822;4.376;2023-05-10T14:57:15;18.48;;;12.50;;
23826;SDS011;12094;50.822;4.376;2023-05-10T14:59:43;19.52;;;12.50;;
23826;SDS011;12094;50.822;4.376;2023-05-10T15:02:12;18.52;;;12.43;;
23826;SDS011;12094;50.822;4.376;2023-05-10T15:04:47;17.23;;;11.80;;
23826;SDS011;12094;50.822;4.376;2023-05-10T15:07:14;17.05;;;11.27;;
23826;SDS011;12094;50.822;4.376;2023-05-10T15:09:42;14.85;;;10.55;;
23826;SDS011;12094;50.822;4.376;2023-05-10T15:12:13;16.52;;;10.60;;
23826;SDS011;12094;50.822;4.376;2023-05-10T15:14:42;16.33;;;10.48;;
23826;SDS011;12094;50.822;4.376;2023-05-10T15:17:09;16.00;;;10.05;;
23826;SDS011;12094;50.822;4.376;2023-05-10T15:19:36;15.85;;;6.97;;
23826;SDS011;12094;50.822;4.376;2023-05-10T15:22:05;13.88;;;6.85;;
23826;SDS011;12094;50.822;4.376;2023-05-10T15:24:32;138.88;;;73.68;;
23826;SDS011;12094;50.822;4.376;2023-05-10T15:27:01;13.50;;;5.90;;
23826;SDS011;12094;50.822;4.376;2023-05-10T15:29:28;13.88;;;6.10;;
23826;SDS011;12094;50.822;4.376;2023-05-10T15:31:56;11.38;;;4.38;;
23826;SDS011;12094;50.822;4.376;2023-05-10T15:34:23;8.73;;;4.70;;
23826;SDS011;12094;50.822;4.376;2023-05-10T15:36:51;10.43;;;4.03;;
23826;SDS011;12094;50.822;4.376;2023-05-10T15:39:22;6.53;;;3.40;;
23826;SDS011;12094;50.822;4.376;2023-05-10T15:41:54;6.50;;;3.90;;
23826;SDS011;12094;50.822;4.376;2023-05-10T15:44:21;17.55;;;5.95;;
23826;SDS011;12094;50.822;4.376;2023-05-10T15:46:50;8.02;;;3.33;;
23826;SDS011;12094;50.822;4.376;2023-05-10T15:49:18;9.18;;;3.92;;
23826;SDS011;12094;50.822;4.376;2023-05-10T15:51:45;11.70;;;3.60;;
23826;SDS011;12094;50.822;4.376;2023-05-10T15:54:12;9.75;;;3.55;;
23826;SDS011;12094;50.822;4.376;2023-05-10T15:56:41;12.02;;;3.17;;